Time;durP1;ratioP1;P1;durP2;ratioP2;P2;SDS_P1;SDS_P2;PMS_P1;PMS_P2;Temp;Humidity;BMP_temperature;BMP_pressure;BME280_temperature;BME280_humidity;BME280_pressure;Samples;Min_cycle;Max_cycle;Signal;HPM_P1;HPM_P2
2022/02/15 00:01:57;;;;;;;4.70;2.27;;;7.60;27.30;;;;;;5028381;28;20205;-58
2022/02/15 00:04:24;;;;;;;3.60;2.10;;;7.40;1.00;;;;;;5029344;28;20215;-59
2022/02/15 00:06:51;;;;;;;4.43;2.30;;;7.20;99.90;;;;;;5023943;28;20202;-58
2022/02/15 00:09:17;;;;;;;8.03;2.13;;;7.20;99.90;;;;;;5024192;28;20227;-58
2022/02/15 00:11:44;;;;;;;7.83;2.37;;;7.30;99.90;;;;;;5024941;28;20224;-59
2022/02/15 00:14:11;;;;;;;5.30;2.37;;;7.40;99.90;;;;;;5028944;28;20598;-57
2022/02/15 00:16:38;;;;;;;7.20;2.47;;;7.30;1.00;;;;;;5028193;28;20232;-57
2022/02/15 00:19:05;;;;;;;4.13;2.37;;;7.30;99.90;;;;;;5027580;28;20679;-58
2022/02/15 00:21:33;;;;;;;3.97;2.00;;;7.30;68.90;;;;;;5026096;28;20504;-62
2022/02/15 00:23:59;;;;;;;4.00;2.20;;;7.30;54.20;;;;;;5022743;28;20214;-58
2022/02/15 00:26:27;;;;;;;4.47;2.10;;;7.40;99.90;;;;;;5027529;28;20313;-58
2022/02/15 00:28:56;;;;;;;6.83;2.33;;;7.30;99.90;;;;;;5023288;28;20256;-59
2022/02/15 00:31:23;;;;;;;3.80;1.97;;;7.30;99.90;;;;;;5029575;28;20201;-56
2022/02/15 00:33:50;;;;;;;3.87;2.17;;;7.20;99.90;;;;;;5031375;28;20204;-53
2022/02/15 00:36:17;;;;;;;2.77;1.80;;;7.20;99.90;;;;;;5025992;28;20304;-54
2022/02/15 00:38:44;;;;;;;4.03;1.77;;;7.10;99.90;;;;;;5026609;28;20286;-54
2022/02/15 00:41:11;;;;;;;4.00;1.70;;;7.10;99.90;;;;;;5027066;28;20208;-56
2022/02/15 00:43:37;;;;;;;2.03;1.33;;;7.10;99.90;;;;;;5041979;28;20294;-56
2022/02/15 00:46:05;;;;;;;7.57;1.70;;;7.20;99.90;;;;;;5021932;28;20810;-56
2022/02/15 00:48:32;;;;;;;5.87;2.00;;;7.20;99.90;;;;;;5044182;28;20271;-56
2022/02/15 00:50:59;;;;;;;3.53;1.37;;;7.20;99.90;;;;;;5026565;28;20250;-54
2022/02/15 00:53:26;;;;;;;5.10;1.23;;;7.30;99.90;;;;;;5024608;28;20209;-58
2022/02/15 00:55:53;;;;;;;4.00;1.37;;;7.30;99.90;;;;;;5029058;28;20286;-53
2022/02/15 00:58:20;;;;;;;4.23;1.30;;;7.40;68.10;;;;;;5022194;28;22315;-54
2022/02/15 01:00:46;;;;;;;3.53;1.20;;;7.40;1.00;;;;;;5027596;28;20568;-54
2022/02/15 01:03:13;;;;;;;2.23;1.03;;;7.30;1.00;;;;;;5024085;28;20217;-53
2022/02/15 01:05:40;;;;;;;2.20;0.90;;;7.30;33.80;;;;;;5025496;28;20203;-55
2022/02/15 01:08:08;;;;;;;1.77;0.90;;;7.30;1.00;;;;;;5027639;28;20200;-56
2022/02/15 01:10:35;;;;;;;5.53;1.90;;;7.30;1.00;;;;;;5023039;28;20228;-54
2022/02/15 01:13:02;;;;;;;1.83;1.00;;;7.30;1.00;;;;;;5027136;28;20203;-53
2022/02/15 01:15:29;;;;;;;3.00;0.70;;;7.30;1.00;;;;;;5023286;28;20292;-52
2022/02/15 01:17:56;;;;;;;1.67;1.57;;;7.10;1.00;;;;;;5024937;28;20337;-57
2022/02/15 01:20:23;;;;;;;2.50;1.10;;;7.20;1.00;;;;;;5024190;28;20288;-53
2022/02/15 01:22:50;;;;;;;3.53;1.70;;;7.20;1.00;;;;;;5027817;28;20202;-54
2022/02/15 01:25:16;;;;;;;1.77;0.97;;;7.00;1.00;;;;;;5019005;28;20957;-56
2022/02/15 01:27:43;;;;;;;3.47;1.53;;;7.20;99.90;;;;;;5026947;28;20218;-55
2022/02/15 01:30:10;;;;;;;4.07;1.20;;;7.20;1.00;;;;;;5029752;28;20576;-56
2022/02/15 01:32:38;;;;;;;3.07;1.30;;;7.20;1.00;;;;;;5031103;28;20196;-54
2022/02/15 01:35:05;;;;;;;1.53;0.93;;;7.30;1.00;;;;;;5030344;28;20268;-57
2022/02/15 01:37:32;;;;;;;4.97;0.97;;;7.40;1.00;;;;;;5031081;28;20815;-57
2022/02/15 01:39:59;;;;;;;2.07;1.07;;;7.40;1.00;;;;;;5028209;28;20247;-54
2022/02/15 01:42:26;;;;;;;2.37;1.10;;;7.30;1.00;;;;;;5032488;28;20213;-54
2022/02/15 01:44:53;;;;;;;2.67;1.00;;;7.30;1.00;;;;;;5032560;28;20276;-56
2022/02/15 01:47:25;;;;;;;2.87;0.97;;;7.10;1.00;;;;;;5029115;28;20269;-54
2022/02/15 01:49:52;;;;;;;1.67;1.00;;;7.00;53.40;;;;;;5031684;28;20222;-55
2022/02/15 01:52:20;;;;;;;3.57;1.50;;;7.00;79.00;;;;;;5032585;28;20636;-56
2022/02/15 01:54:50;;;;;;;4.30;1.37;;;7.10;99.90;;;;;;5013949;28;20232;-55
2022/02/15 01:57:17;;;;;;;3.50;1.37;;;7.00;99.90;;;;;;5027465;28;20205;-55
2022/02/15 01:59:45;;;;;;;4.60;1.60;;;7.10;99.90;;;;;;5028416;28;20720;-55
2022/02/15 02:02:14;;;;;;;4.57;1.10;;;7.00;71.10;;;;;;5032842;28;20813;-56
2022/02/15 02:07:28;;;;;;;3.33;1.93;;;7.10;92.50;;;;;;5030837;28;20563;-55
2022/02/15 02:09:55;;;;;;;4.87;2.10;;;7.10;99.90;;;;;;5022660;28;20315;-54
2022/02/15 02:12:22;;;;;;;5.30;2.13;;;7.10;99.90;;;;;;5025086;28;20196;-54
2022/02/15 02:15:22;;;;;;;4.07;2.00;;;7.00;99.90;;;;;;5026497;28;20637;-55
2022/02/15 02:17:51;;;;;;;6.73;2.40;;;7.00;99.90;;;;;;5024755;28;20202;-57
2022/02/15 02:20:19;;;;;;;6.37;2.40;;;7.10;99.90;;;;;;5029544;28;20393;-56
2022/02/15 02:22:46;;;;;;;7.67;2.30;;;7.10;99.90;;;;;;5030278;28;20202;-55
2022/02/15 02:25:17;;;;;;;8.77;2.67;;;7.10;99.90;;;;;;5030188;28;20218;-55
2022/02/15 02:27:45;;;;;;;5.47;2.40;;;7.20;99.90;;;;;;5042590;28;20449;-54
2022/02/15 02:30:12;;;;;;;4.97;2.10;;;7.20;99.90;;;;;;5029339;28;20224;-57
2022/02/15 02:32:39;;;;;;;5.80;2.30;;;7.10;99.90;;;;;;5029964;28;20255;-55
2022/02/15 02:35:07;;;;;;;7.40;2.90;;;7.10;99.90;;;;;;5043717;28;20200;-55
2022/02/15 02:37:35;;;;;;;4.23;2.50;;;7.00;99.90;;;;;;5030994;28;20234;-54
2022/02/15 02:40:06;;;;;;;4.03;2.80;;;6.90;99.90;;;;;;5029454;28;20252;-56
2022/02/15 02:42:34;;;;;;;6.30;2.70;;;6.90;99.90;;;;;;5031574;28;20215;-53
2022/02/15 02:45:07;;;;;;;7.20;3.23;;;6.90;99.90;;;;;;5032519;28;20781;-55
2022/02/15 02:47:33;;;;;;;5.90;2.80;;;6.90;99.90;;;;;;5032480;28;20715;-55
2022/02/15 02:50:00;;;;;;;7.93;3.40;;;7.00;99.90;;;;;;5025557;28;20245;-55
2022/02/15 02:52:27;;;;;;;3.40;3.10;;;7.00;99.90;;;;;;5032658;28;20990;-54
2022/02/15 02:54:54;;;;;;;5.20;3.23;;;7.00;99.90;;;;;;5029200;28;20233;-55
2022/02/15 02:57:21;;;;;;;8.87;3.73;;;6.90;99.90;;;;;;5031262;28;20219;-54
2022/02/15 02:59:48;;;;;;;6.23;3.23;;;6.90;99.90;;;;;;5029248;28;20201;-54
2022/02/15 03:02:15;;;;;;;4.23;3.30;;;6.90;99.90;;;;;;5024840;28;20232;-54
2022/02/15 03:04:43;;;;;;;7.70;3.97;;;6.90;99.90;;;;;;5028331;28;20292;-58
2022/02/15 03:07:13;;;;;;;6.03;4.27;;;6.80;99.90;;;;;;5030725;28;20210;-57
2022/02/15 03:09:40;;;;;;;6.63;4.13;;;6.80;99.90;;;;;;5025742;28;20600;-57
2022/02/15 03:12:08;;;;;;;6.50;4.17;;;6.80;99.90;;;;;;5029519;28;20296;-55
2022/02/15 03:14:35;;;;;;;5.57;3.53;;;6.80;99.90;;;;;;5029602;28;20237;-55
2022/02/15 03:17:02;;;;;;;7.00;4.13;;;6.80;99.90;;;;;;5022197;28;20204;-56
2022/02/15 03:19:28;;;;;;;9.87;4.50;;;6.80;99.90;;;;;;5024113;28;20285;-55
2022/02/15 03:21:55;;;;;;;9.27;4.13;;;6.80;99.90;;;;;;5028748;28;20237;-56
2022/02/15 03:24:22;;;;;;;11.77;4.30;;;6.80;99.90;;;;;;5030195;28;20293;-56
2022/02/15 03:26:49;;;;;;;8.07;5.50;;;6.80;99.90;;;;;;5030978;28;20197;-55
2022/02/15 03:29:16;;;;;;;10.07;5.03;;;6.70;99.90;;;;;;5029763;28;20307;-58
2022/02/15 03:31:43;;;;;;;9.87;5.33;;;6.70;99.90;;;;;;5031472;28;21964;-56
2022/02/15 03:34:10;;;;;;;12.23;6.00;;;6.70;99.90;;;;;;5027102;28;20207;-54
2022/02/15 03:36:38;;;;;;;9.80;6.00;;;6.70;99.90;;;;;;5026835;28;20230;-53
2022/02/15 03:39:08;;;;;;;9.73;6.63;;;6.70;99.90;;;;;;5027693;28;20206;-58
2022/02/15 03:44:24;;;;;;;9.80;5.57;;;6.70;99.90;;;;;;5028857;28;20618;-56
2022/02/15 03:46:52;;;;;;;9.00;6.07;;;6.70;99.90;;;;;;5028426;28;20202;-55
2022/02/15 03:49:19;;;;;;;13.37;6.27;;;6.80;99.90;;;;;;5027105;28;20221;-55
2022/02/15 03:51:46;;;;;;;11.57;6.33;;;6.70;99.90;;;;;;5023746;28;20719;-55
2022/02/15 03:54:13;;;;;;;9.10;6.23;;;6.70;99.90;;;;;;5027716;28;20612;-54
2022/02/15 03:56:40;;;;;;;13.47;6.53;;;6.70;99.90;;;;;;5029763;28;20198;-55
2022/02/15 03:59:07;;;;;;;10.13;6.97;;;6.70;99.90;;;;;;5027788;28;20216;-58
2022/02/15 04:01:35;;;;;;;13.27;6.43;;;6.60;99.90;;;;;;5025931;28;20975;-56
2022/02/15 04:04:02;;;;;;;9.03;7.10;;;6.60;99.90;;;;;;5026180;28;20224;-55
2022/02/15 04:06:29;;;;;;;12.40;7.23;;;6.70;99.90;;;;;;5030476;28;20226;-53
2022/02/15 04:08:56;;;;;;;11.27;7.60;;;6.60;99.90;;;;;;5030090;28;20258;-53
2022/02/15 04:11:23;;;;;;;9.87;7.00;;;6.60;99.90;;;;;;5029135;28;20225;-57
2022/02/15 04:13:50;;;;;;;11.43;7.47;;;6.60;99.90;;;;;;5025591;28;20619;-56
2022/02/15 04:16:16;;;;;;;11.13;7.53;;;6.60;99.90;;;;;;5028353;28;20667;-55
2022/02/15 04:18:47;;;;;;;13.70;8.03;;;6.60;99.90;;;;;;5012798;28;20872;-54
2022/02/15 04:21:20;;;;;;;11.30;7.43;;;6.60;99.90;;;;;;5025195;28;20836;-56
2022/02/15 04:23:48;;;;;;;13.27;8.17;;;6.60;99.90;;;;;;5028159;28;20204;-55
2022/02/15 04:26:16;;;;;;;14.07;8.23;;;6.60;99.90;;;;;;5031163;28;20200;-54
2022/02/15 04:28:43;;;;;;;13.70;7.90;;;6.60;99.90;;;;;;5024608;28;20895;-54
2022/02/15 04:31:10;;;;;;;14.53;8.37;;;6.60;99.90;;;;;;5024877;28;20218;-57
2022/02/15 04:33:37;;;;;;;13.47;8.17;;;6.60;99.90;;;;;;5026066;28;20681;-54
2022/02/15 04:36:04;;;;;;;11.43;7.93;;;6.60;99.90;;;;;;5030425;28;20193;-57
2022/02/15 04:38:31;;;;;;;15.67;8.23;;;6.60;99.90;;;;;;5028046;28;20203;-56
2022/02/15 04:40:58;;;;;;;12.20;8.40;;;6.60;99.90;;;;;;5023496;28;20206;-56
2022/02/15 04:43:26;;;;;;;11.33;8.13;;;6.60;99.90;;;;;;5026318;28;20305;-58
2022/02/15 04:45:53;;;;;;;11.73;8.40;;;6.60;99.90;;;;;;5031083;28;20755;-56
2022/02/15 04:48:20;;;;;;;13.67;9.67;;;6.70;99.90;;;;;;5028658;28;20664;-55
2022/02/15 04:50:47;;;;;;;16.73;9.73;;;6.60;99.90;;;;;;5026798;28;20574;-53
2022/02/15 04:53:14;;;;;;;13.73;9.03;;;6.60;99.90;;;;;;5026157;28;20486;-54
2022/02/15 04:55:41;;;;;;;13.77;8.80;;;6.60;99.90;;;;;;5025202;28;20203;-55
2022/02/15 04:58:08;;;;;;;14.00;8.87;;;6.60;99.90;;;;;;5027301;28;20645;-55
2022/02/15 05:00:35;;;;;;;14.07;9.40;;;6.50;99.90;;;;;;5023456;28;20704;-55
2022/02/15 05:03:02;;;;;;;16.53;9.07;;;6.60;99.90;;;;;;5029878;28;20625;-57
2022/02/15 05:05:30;;;;;;;13.43;9.33;;;6.60;99.90;;;;;;5031294;28;20206;-55
2022/02/15 05:07:57;;;;;;;13.57;9.40;;;6.60;99.90;;;;;;5029362;28;20207;-56
2022/02/15 05:10:24;;;;;;;15.47;10.07;;;6.60;99.90;;;;;;5023872;28;20236;-55
2022/02/15 05:12:51;;;;;;;19.17;9.73;;;6.60;99.90;;;;;;5030086;28;20204;-54
2022/02/15 05:15:18;;;;;;;13.60;9.50;;;6.60;99.90;;;;;;5029341;28;20540;-55
2022/02/15 05:17:46;;;;;;;15.37;9.57;;;6.60;99.90;;;;;;5032261;28;20226;-54
2022/02/15 05:20:16;;;;;;;14.87;10.17;;;6.70;99.90;;;;;;5024878;28;20231;-55
2022/02/15 05:22:45;;;;;;;16.83;9.90;;;6.70;99.90;;;;;;5033686;28;20289;-55
2022/02/15 05:25:13;;;;;;;13.67;9.60;;;6.70;99.90;;;;;;5045226;28;20197;-55
2022/02/15 05:27:41;;;;;;;13.47;9.30;;;6.70;99.90;;;;;;5030589;28;20224;-53
2022/02/15 05:30:09;;;;;;;13.37;9.60;;;6.60;99.90;;;;;;5029464;28;20643;-54
2022/02/15 05:32:36;;;;;;;14.80;9.43;;;6.60;99.90;;;;;;5031838;28;20206;-57
2022/02/15 05:35:04;;;;;;;13.30;8.53;;;6.60;99.90;;;;;;5031268;28;20200;-54
2022/02/15 05:37:31;;;;;;;15.83;10.50;;;6.60;99.90;;;;;;5027416;28;20203;-54
2022/02/15 05:39:58;;;;;;;18.97;9.20;;;6.60;99.90;;;;;;5027449;28;20215;-55
2022/02/15 05:42:25;;;;;;;12.97;9.07;;;6.60;99.90;;;;;;5030783;28;20598;-54
2022/02/15 05:44:52;;;;;;;13.77;8.53;;;6.60;99.90;;;;;;5032571;28;20627;-55
2022/02/15 05:47:19;;;;;;;17.77;9.43;;;6.60;99.90;;;;;;5024746;28;20732;-56
2022/02/15 05:52:37;;;;;;;13.07;8.07;;;6.60;99.90;;;;;;5033207;28;20213;-54
2022/02/15 05:55:04;;;;;;;10.33;8.20;;;6.60;99.90;;;;;;5029278;28;20895;-56
2022/02/15 05:57:31;;;;;;;12.80;8.47;;;6.60;99.90;;;;;;5027600;28;20297;-56
2022/02/15 05:59:58;;;;;;;17.00;9.90;;;6.70;99.90;;;;;;5030600;28;20802;-55
2022/02/15 06:02:25;;;;;;;12.27;8.67;;;6.70;99.90;;;;;;5029784;28;20316;-56
2022/02/15 06:04:52;;;;;;;15.00;8.47;;;6.70;99.90;;;;;;5034147;28;20261;-56
2022/02/15 06:07:19;;;;;;;15.17;9.40;;;6.60;99.90;;;;;;5026746;28;20208;-54
2022/02/15 06:09:46;;;;;;;23.27;8.77;;;6.70;99.90;;;;;;5026078;28;20238;-56
2022/02/15 06:12:13;;;;;;;16.93;10.07;;;6.60;99.90;;;;;;5026744;28;20199;-55
2022/02/15 06:14:40;;;;;;;15.27;8.60;;;6.70;99.90;;;;;;5028260;28;20233;-56
2022/02/15 06:17:07;;;;;;;13.57;7.97;;;6.70;99.90;;;;;;5031744;28;20266;-54
2022/02/15 06:19:34;;;;;;;16.03;8.77;;;6.70;99.90;;;;;;5027757;28;20218;-54
2022/02/15 06:22:00;;;;;;;13.77;8.87;;;6.70;99.90;;;;;;5028498;28;20717;-54
2022/02/15 06:24:27;;;;;;;12.53;8.03;;;6.70;99.90;;;;;;5024903;28;20251;-55
2022/02/15 06:27:03;;;;;;;12.33;7.93;;;6.70;99.90;;;;;;5030841;28;20684;-56
2022/02/15 06:29:31;;;;;;;14.60;8.83;;;6.60;99.90;;;;;;5027977;28;20643;-55
2022/02/15 06:31:58;;;;;;;13.20;6.53;;;6.60;99.90;;;;;;5033350;28;20663;-54
2022/02/15 06:34:25;;;;;;;15.70;7.03;;;6.60;99.90;;;;;;5026790;28;20228;-59
2022/02/15 06:36:52;;;;;;;10.90;4.57;;;6.60;99.90;;;;;;5025122;28;20504;-60
2022/02/15 06:39:20;;;;;;;6.70;3.80;;;6.50;99.90;;;;;;5009230;28;20213;-54
2022/02/15 06:41:47;;;;;;;8.63;3.40;;;6.50;99.90;;;;;;5026832;28;20346;-55
2022/02/15 06:44:14;;;;;;;6.70;3.13;;;6.50;99.90;;;;;;5021072;28;20208;-54
2022/02/15 06:46:41;;;;;;;7.07;4.00;;;6.40;99.90;;;;;;5023113;28;20670;-55
2022/02/15 06:49:08;;;;;;;8.60;4.03;;;6.60;99.90;;;;;;5043979;28;20219;-54
2022/02/15 06:51:35;;;;;;;9.57;4.10;;;6.70;99.90;;;;;;5030326;28;20225;-54
2022/02/15 06:54:02;;;;;;;8.17;4.43;;;6.80;99.90;;;;;;5028108;28;20300;-56
2022/02/15 06:56:29;;;;;;;11.07;4.80;;;6.70;99.90;;;;;;5025472;28;20264;-55
2022/02/15 06:58:56;;;;;;;9.47;4.70;;;6.60;99.90;;;;;;5025615;28;20197;-59
2022/02/15 07:01:23;;;;;;;11.73;6.20;;;6.60;99.90;;;;;;5023190;28;20280;-56
2022/02/15 07:03:50;;;;;;;13.07;6.00;;;6.70;99.90;;;;;;5031329;28;20192;-56
2022/02/15 07:06:18;;;;;;;16.27;7.03;;;6.70;99.90;;;;;;5022885;28;20236;-56
2022/02/15 07:08:45;;;;;;;12.43;6.63;;;6.70;99.90;;;;;;5024665;28;20293;-56
2022/02/15 07:11:12;;;;;;;12.60;7.27;;;6.80;99.90;;;;;;5014469;28;20211;-60
2022/02/15 07:13:39;;;;;;;14.97;6.83;;;6.80;99.90;;;;;;5025017;28;20211;-55
2022/02/15 07:16:06;;;;;;;15.67;7.37;;;6.80;99.90;;;;;;5026581;28;20194;-55
2022/02/15 07:18:33;;;;;;;16.00;7.27;;;6.70;99.90;;;;;;5027683;28;20205;-55
2022/02/15 07:21:00;;;;;;;9.43;5.63;;;6.70;99.90;;;;;;5028487;28;20258;-56
2022/02/15 07:23:27;;;;;;;16.37;6.53;;;6.70;99.90;;;;;;5025396;28;20259;-55
2022/02/15 07:25:54;;;;;;;14.57;6.23;;;6.70;99.90;;;;;;5024694;28;20252;-55
2022/02/15 07:28:20;;;;;;;13.70;5.80;;;6.70;99.90;;;;;;5021600;28;20207;-55
2022/02/15 07:30:47;;;;;;;12.67;5.33;;;6.70;99.90;;;;;;5017492;28;20712;-56
2022/02/15 07:33:14;;;;;;;10.87;4.97;;;6.60;99.90;;;;;;5023723;28;20667;-56
2022/02/15 07:35:41;;;;;;;11.17;5.37;;;6.70;99.90;;;;;;5013018;28;20565;-58
2022/02/15 07:38:08;;;;;;;15.33;4.97;;;6.70;99.90;;;;;;5017898;28;20290;-57
2022/02/15 07:40:35;;;;;;;12.73;5.00;;;6.60;99.90;;;;;;5020762;28;20291;-54
2022/02/15 07:43:02;;;;;;;12.33;5.00;;;6.60;99.90;;;;;;5019106;28;20898;-54
2022/02/15 07:45:30;;;;;;;8.83;4.60;;;6.60;99.90;;;;;;5022559;28;20246;-54
2022/02/15 07:47:57;;;;;;;10.07;4.80;;;6.60;99.90;;;;;;5023441;28;20640;-55
2022/02/15 07:50:24;;;;;;;13.27;5.53;;;6.70;99.90;;;;;;5024371;28;20638;-56
2022/02/15 07:52:52;;;;;;;13.63;4.73;;;6.70;99.90;;;;;;5041508;28;20193;-54
2022/02/15 07:55:19;;;;;;;11.77;4.93;;;6.70;99.90;;;;;;5015737;28;20196;-55
2022/02/15 07:57:47;;;;;;;15.93;5.37;;;6.70;99.90;;;;;;5023212;28;20711;-55
2022/02/15 08:00:18;;;;;;;11.60;5.10;;;6.60;99.90;;;;;;5017728;28;20200;-55
2022/02/15 08:02:49;;;;;;;10.97;5.33;;;6.70;99.90;;;;;;5027447;28;20583;-55
2022/02/15 08:05:17;;;;;;;9.67;5.13;;;6.80;99.90;;;;;;5023936;28;20289;-55
2022/02/15 08:07:46;;;;;;;14.60;4.87;;;6.80;99.90;;;;;;5022127;28;20198;-54
2022/02/15 08:10:14;;;;;;;15.27;5.10;;;6.80;99.90;;;;;;5009176;28;20677;-55
2022/02/15 08:12:41;;;;;;;12.07;5.30;;;6.80;99.90;;;;;;5021478;28;20695;-55
2022/02/15 08:15:09;;;;;;;12.80;4.60;;;6.80;99.90;;;;;;5030296;28;20925;-55
2022/02/15 08:17:38;;;;;;;10.77;4.30;;;6.70;99.90;;;;;;5026252;28;20215;-57
2022/02/15 08:20:05;;;;;;;10.50;3.93;;;6.80;99.90;;;;;;5013580;28;20326;-54
2022/02/15 08:22:32;;;;;;;8.10;3.77;;;6.90;99.90;;;;;;5023393;28;20919;-56
2022/02/15 08:24:59;;;;;;;10.53;3.93;;;7.00;99.90;;;;;;5023098;28;20200;-55
2022/02/15 08:27:26;;;;;;;5.10;2.87;;;6.90;99.90;;;;;;5020766;28;20737;-55
2022/02/15 08:29:53;;;;;;;12.47;3.33;;;6.90;99.90;;;;;;5025614;28;20297;-55
2022/02/15 08:32:20;;;;;;;9.83;3.73;;;6.90;99.90;;;;;;5022803;28;20278;-55
2022/02/15 08:34:47;;;;;;;10.40;3.43;;;7.00;99.90;;;;;;5026774;28;20267;-56
2022/02/15 08:37:14;;;;;;;9.20;2.90;;;7.00;99.90;;;;;;5024183;28;20751;-55
2022/02/15 08:39:42;;;;;;;9.03;2.97;;;7.10;99.90;;;;;;5019638;28;20227;-55
2022/02/15 08:42:09;;;;;;;6.23;2.57;;;7.20;99.90;;;;;;5023694;28;20212;-56
2022/02/15 08:44:36;;;;;;;6.13;2.77;;;7.30;99.90;;;;;;5022350;28;20672;-55
2022/02/15 08:47:06;;;;;;;6.73;2.57;;;7.30;99.90;;;;;;5024142;28;20219;-54
2022/02/15 08:49:33;;;;;;;5.93;2.30;;;7.10;99.90;;;;;;5020426;28;20264;-54
2022/02/15 08:52:00;;;;;;;6.40;2.10;;;7.10;99.90;;;;;;5028630;28;20260;-53
2022/02/15 08:54:27;;;;;;;9.53;2.10;;;7.10;99.90;;;;;;5027317;28;20292;-55
2022/02/15 08:56:54;;;;;;;7.20;2.27;;;7.10;99.90;;;;;;5026581;28;20644;-54
2022/02/15 08:59:21;;;;;;;8.00;2.50;;;7.10;99.90;;;;;;5025242;28;20242;-55
2022/02/15 09:01:48;;;;;;;4.90;2.37;;;7.30;99.90;;;;;;5019174;28;20253;-55
2022/02/15 09:04:16;;;;;;;5.80;2.23;;;7.70;99.90;;;;;;5028214;28;20207;-54
2022/02/15 09:06:45;;;;;;;7.10;2.33;;;7.70;99.90;;;;;;5020704;28;20203;-56
2022/02/15 09:09:13;;;;;;;9.37;2.10;;;7.50;99.90;;;;;;5024613;28;20217;-54
2022/02/15 09:11:41;;;;;;;6.40;2.47;;;7.40;99.90;;;;;;5026188;28;20494;-57
2022/02/15 09:14:08;;;;;;;4.43;2.13;;;7.40;99.90;;;;;;5023672;28;20271;-55
2022/02/15 09:16:35;;;;;;;9.47;1.97;;;7.20;99.90;;;;;;5032010;28;20204;-55
2022/02/15 09:19:02;;;;;;;4.13;1.87;;;7.10;99.90;;;;;;5027804;28;20598;-56
2022/02/15 09:21:28;;;;;;;12.47;2.70;;;7.20;99.90;;;;;;5024648;28;20224;-54
2022/02/15 09:23:55;;;;;;;14.47;3.00;;;7.30;99.90;;;;;;5024327;28;20294;-54
2022/02/15 09:26:22;;;;;;;7.40;2.47;;;7.40;99.90;;;;;;5019097;28;20258;-57
2022/02/15 09:28:49;;;;;;;7.00;2.50;;;7.40;99.90;;;;;;5013480;28;20224;-55
2022/02/15 09:31:16;;;;;;;6.87;2.67;;;7.50;99.90;;;;;;5023321;28;20221;-56
2022/02/15 09:33:43;;;;;;;4.10;2.47;;;7.60;99.90;;;;;;5027149;28;20273;-56
2022/02/15 09:36:26;;;;;;;5.63;2.50;;;7.30;99.90;;;;;;5025871;28;20203;-56
2022/02/15 09:38:53;;;;;;;7.83;2.47;;;7.20;99.90;;;;;;5026341;28;20810;-55
2022/02/15 09:41:21;;;;;;;6.40;2.33;;;7.10;99.90;;;;;;5027922;28;20213;-55
2022/02/15 09:43:48;;;;;;;5.80;2.20;;;7.30;99.90;;;;;;5029845;28;20220;-56
2022/02/15 09:46:16;;;;;;;8.60;2.50;;;7.40;99.90;;;;;;5026224;28;20321;-55
2022/02/15 09:48:44;;;;;;;7.20;2.27;;;7.40;99.90;;;;;;5031321;28;20630;-55
2022/02/15 09:51:13;;;;;;;8.23;2.03;;;7.30;99.90;;;;;;5033742;28;20223;-56
2022/02/15 09:53:40;;;;;;;6.87;2.47;;;7.30;99.90;;;;;;5030290;28;20917;-58
2022/02/15 09:56:07;;;;;;;4.50;2.20;;;7.60;1.00;;;;;;5034719;28;20752;-56
2022/02/15 09:58:34;;;;;;;5.80;2.37;;;8.30;1.00;;;;;;5032481;28;20300;-57
2022/02/15 10:01:04;;;;;;;5.77;2.37;;;8.60;99.90;;;;;;5023737;28;20207;-57
2022/02/15 10:03:32;;;;;;;4.30;1.70;;;8.90;1.00;;;;;;5014278;28;20200;-56
2022/02/15 10:06:02;;;;;;;5.07;2.43;;;8.80;1.00;;;;;;5023145;28;20718;-57
2022/02/15 10:08:31;;;;;;;5.23;1.57;;;9.00;99.90;;;;;;5015532;28;20219;-54
2022/02/15 10:11:13;;;;;;;6.20;2.20;;;8.80;1.00;;;;;;5019078;28;20648;-54
2022/02/15 10:13:46;;;;;;;3.90;1.63;;;8.80;44.50;;;;;;5027296;28;20211;-56
2022/02/15 10:16:14;;;;;;;5.27;1.60;;;8.70;1.00;;;;;;5017241;28;20198;-57
2022/02/15 10:18:43;;;;;;;5.43;2.37;;;9.20;1.00;;;;;;5014511;28;20327;-56
2022/02/15 10:21:15;;;;;;;6.23;1.90;;;9.30;1.00;;;;;;5014053;28;20290;-58
2022/02/15 10:23:42;;;;;;;3.53;1.57;;;9.10;99.90;;;;;;5030478;28;20207;-56
2022/02/15 10:26:10;;;;;;;8.10;1.63;;;8.90;1.00;;;;;;5020742;28;20243;-54
2022/02/15 10:28:38;;;;;;;8.50;1.63;;;9.20;99.90;;;;;;5025981;28;20203;-56
2022/02/15 10:31:05;;;;;;;5.87;1.60;;;9.60;99.90;;;;;;5021247;28;21123;-54
2022/02/15 10:33:34;;;;;;;5.03;1.40;;;9.40;1.00;;;;;;5025926;28;20204;-55
2022/02/15 10:36:07;;;;;;;5.87;2.17;;;9.10;1.00;;;;;;5018079;28;20232;-58
2022/02/15 10:38:39;;;;;;;7.27;1.50;;;9.10;1.00;;;;;;5015940;28;20657;-55
2022/02/15 10:41:11;;;;;;;4.27;1.60;;;8.60;5.50;;;;;;5013154;28;20279;-55
2022/02/15 10:43:50;;;;;;;5.77;1.97;;;8.80;99.90;;;;;;5021399;28;20236;-56
2022/02/15 10:46:24;;;;;;;6.57;1.80;;;9.20;1.00;;;;;;5024454;28;20805;-55
2022/02/15 10:48:53;;;;;;;4.90;1.40;;;9.60;1.00;;;;;;5015720;28;20640;-56
2022/02/15 10:51:22;;;;;;;6.20;1.67;;;9.30;1.00;;;;;;5010764;28;20223;-56
2022/02/15 10:53:58;;;;;;;2.47;1.53;;;9.60;1.00;;;;;;5004214;28;20201;-55
2022/02/15 10:56:33;;;;;;;4.00;2.07;;;9.30;99.90;;;;;;5008598;28;20207;-55
2022/02/15 10:59:03;;;;;;;6.43;2.03;;;9.70;1.00;;;;;;5012593;28;20210;-56
2022/02/15 11:01:32;;;;;;;4.80;1.30;;;9.40;1.00;;;;;;5011648;28;20213;-55
2022/02/15 11:04:01;;;;;;;4.97;1.37;;;9.00;1.00;;;;;;5009944;28;20218;-55
2022/02/15 11:06:29;;;;;;;3.50;1.63;;;8.70;1.00;;;;;;5010117;28;20684;-54
2022/02/15 11:08:58;;;;;;;3.90;1.63;;;8.70;1.00;;;;;;5009473;28;20235;-54
2022/02/15 11:11:26;;;;;;;2.17;1.40;;;8.60;1.00;;;;;;5016014;28;20307;-55
2022/02/15 11:13:55;;;;;;;3.13;1.60;;;8.70;1.00;;;;;;5010484;28;20647;-58
2022/02/15 11:16:24;;;;;;;3.67;1.57;;;9.20;1.00;;;;;;5023700;28;20329;-56
2022/02/15 11:18:51;;;;;;;3.33;1.40;;;9.50;1.00;;;;;;5018050;28;20196;-55
2022/02/15 11:21:24;;;;;;;5.23;1.77;;;9.80;1.00;;;;;;5004931;28;20323;-52
2022/02/15 11:23:59;;;;;;;4.77;1.90;;;9.60;99.90;;;;;;5009596;28;20652;-61
2022/02/15 11:26:41;;;;;;;3.07;1.70;;;9.60;1.00;;;;;;5009342;28;20220;-62
2022/02/15 11:29:24;;;;;;;3.93;1.77;;;9.40;99.90;;;;;;5016159;28;20211;-64
2022/02/15 11:31:53;;;;;;;5.63;2.17;;;8.90;1.00;;;;;;5020340;28;20347;-63
2022/02/15 11:34:31;;;;;;;7.53;2.23;;;8.70;1.00;;;;;;5012179;28;20647;-62
2022/02/15 11:37:00;;;;;;;4.33;1.77;;;8.70;1.00;;;;;;5018037;28;20309;-63
2022/02/15 11:39:38;;;;;;;6.23;1.67;;;8.70;1.00;;;;;;5023208;28;20635;-63
2022/02/15 11:42:16;;;;;;;2.90;1.43;;;8.80;99.90;;;;;;5025286;28;20247;-63
2022/02/15 11:44:44;;;;;;;3.87;1.40;;;8.90;99.90;;;;;;5025065;28;20311;-62
2022/02/15 11:47:24;;;;;;;3.03;1.17;;;9.20;99.90;;;;;;5026816;28;20685;-62
2022/02/15 11:50:00;;;;;;;3.53;1.10;;;9.30;1.00;;;;;;5016582;28;20894;-64
2022/02/15 11:52:29;;;;;;;5.07;1.80;;;9.30;38.60;;;;;;5021606;28;20244;-62
2022/02/15 11:55:06;;;;;;;3.07;1.30;;;9.50;68.10;;;;;;5017968;28;20670;-63
2022/02/15 11:57:34;;;;;;;5.30;1.50;;;9.80;99.90;;;;;;5018695;28;20204;-63
2022/02/15 12:00:01;;;;;;;5.07;1.33;;;10.00;99.90;;;;;;5018802;28;20291;-64
2022/02/15 12:02:28;;;;;;;3.27;1.10;;;10.10;99.90;;;;;;5019762;28;20669;-65
2022/02/15 12:05:04;;;;;;;1.53;1.03;;;10.40;99.90;;;;;;5023027;28;20846;-65
2022/02/15 12:07:31;;;;;;;8.23;1.37;;;10.30;99.90;;;;;;5037360;28;20212;-54
2022/02/15 12:10:01;;;;;;;3.00;1.33;;;10.50;99.90;;;;;;5021336;28;20321;-55
2022/02/15 12:12:36;;;;;;;2.00;1.00;;;10.40;99.90;;;;;;5004463;28;20668;-56
2022/02/15 12:15:08;;;;;;;7.27;1.17;;;10.30;99.90;;;;;;5021076;28;20202;-55
2022/02/15 12:17:42;;;;;;;3.63;1.17;;;10.40;99.90;;;;;;5021833;28;20200;-57
2022/02/15 12:20:16;;;;;;;5.00;1.03;;;10.20;99.90;;;;;;5023756;28;20198;-56
2022/02/15 12:22:45;;;;;;;2.47;1.00;;;9.90;99.90;;;;;;5024308;28;20210;-56
2022/02/15 12:25:13;;;;;;;2.07;0.80;;;9.80;99.90;;;;;;5019172;28;22993;-52
2022/02/15 12:27:46;;;;;;;1.03;0.80;;;9.70;99.90;;;;;;5023337;28;20199;-55
2022/02/15 12:30:15;;;;;;;2.27;0.97;;;9.60;99.90;;;;;;5024992;28;20229;-56
2022/02/15 12:32:48;;;;;;;4.33;1.43;;;9.40;99.90;;;;;;5024145;28;20329;-56
2022/02/15 12:35:26;;;;;;;5.87;1.23;;;9.40;99.90;;;;;;5024380;28;20206;-55
2022/02/15 12:37:57;;;;;;;1.37;0.90;;;9.40;99.90;;;;;;5022505;28;20620;-57
2022/02/15 12:40:24;;;;;;;6.17;1.27;;;9.50;99.90;;;;;;5017681;28;20636;-55
2022/02/15 12:42:54;;;;;;;4.10;1.20;;;9.80;99.90;;;;;;5025006;28;20742;-57
2022/02/15 12:45:21;;;;;;;5.13;1.30;;;10.00;99.90;;;;;;5015880;28;20270;-55
2022/02/15 12:47:48;;;;;;;3.10;1.07;;;10.00;99.90;;;;;;5020212;28;20223;-57
2022/02/15 12:50:15;;;;;;;2.83;1.30;;;10.30;99.90;;;;;;5019537;28;20235;-55
2022/02/15 12:52:42;;;;;;;3.03;1.10;;;10.10;99.90;;;;;;5019053;28;20308;-57
2022/02/15 12:55:22;;;;;;;2.53;0.90;;;10.30;99.90;;;;;;5015989;28;20217;-56
2022/02/15 12:57:50;;;;;;;2.70;1.20;;;9.90;99.90;;;;;;5016187;28;20223;-57
2022/02/15 13:00:19;;;;;;;5.70;1.40;;;9.80;99.90;;;;;;5021143;28;20249;-56
2022/02/15 13:02:47;;;;;;;7.50;1.73;;;9.80;99.90;;;;;;5021725;28;20395;-55
2022/02/15 13:05:21;;;;;;;3.60;1.30;;;9.60;99.90;;;;;;5018146;28;20223;-56
2022/02/15 13:07:49;;;;;;;5.83;1.53;;;9.60;99.90;;;;;;5021712;28;20212;-55
2022/02/15 13:10:22;;;;;;;2.87;1.00;;;9.70;1.00;;;;;;5020958;28;20626;-54